createdAt,value
2018-07-22T00:01:24.363Z,10.07
2018-07-22T00:04:26.626Z,8.90
2018-07-22T00:07:28.891Z,9.07
2018-07-22T00:10:31.133Z,9.20
2018-07-22T00:13:34.534Z,9.50
2018-07-22T00:16:37.082Z,9.07
2018-07-22T00:19:39.410Z,10.23
2018-07-22T00:22:41.656Z,8.10
2018-07-22T00:25:43.909Z,9.63
2018-07-22T00:28:46.221Z,8.80
2018-07-22T00:31:48.493Z,8.93
2018-07-22T00:34:50.718Z,8.90
2018-07-22T00:37:53.014Z,8.90
2018-07-22T00:40:55.278Z,10.50
2018-07-22T00:43:57.548Z,10.97
2018-07-22T00:46:59.838Z,8.90
2018-07-22T00:50:02.205Z,10.10
2018-07-22T00:53:06.438Z,9.37
2018-07-22T00:56:08.676Z,10.53
2018-07-22T00:59:10.979Z,10.43
2018-07-22T01:02:13.274Z,9.53
2018-07-22T01:05:15.493Z,9.90
2018-07-22T01:08:17.771Z,12.87
2018-07-22T01:11:20.079Z,11.23
2018-07-22T01:14:23.328Z,11.43
2018-07-22T01:17:26.546Z,14.17
2018-07-22T01:20:29.845Z,9.63
2018-07-22T01:23:32.120Z,10.27
2018-07-22T01:26:34.355Z,9.73
2018-07-22T01:29:37.589Z,9.80
2018-07-22T01:32:39.990Z,10.07
2018-07-22T01:35:42.208Z,9.23
2018-07-22T01:38:45.453Z,10.37
2018-07-22T01:41:47.743Z,15.10
2018-07-22T01:44:49.992Z,13.57
2018-07-22T01:47:52.242Z,13.60
2018-07-22T01:50:54.470Z,13.30
2018-07-22T01:53:56.706Z,14.70
2018-07-22T01:56:58.967Z,13.90
2018-07-22T02:00:01.258Z,16.23
2018-07-22T02:03:03.647Z,15.07
2018-07-22T02:06:05.979Z,16.20
2018-07-22T02:09:09.501Z,13.50
2018-07-22T02:12:12.789Z,16.30
2018-07-22T02:15:15.003Z,16.17
2018-07-22T02:18:17.354Z,15.13
2018-07-22T02:21:19.675Z,16.40
2018-07-22T02:24:21.993Z,15.30
2018-07-22T02:27:24.269Z,14.67
2018-07-22T02:30:26.485Z,14.83
2018-07-22T02:33:29.744Z,14.87
2018-07-22T02:36:32.011Z,15.63
2018-07-22T02:39:34.294Z,14.47
2018-07-22T02:42:36.580Z,14.07
2018-07-22T02:45:38.932Z,14.50
2018-07-22T02:48:41.183Z,15.07
2018-07-22T02:51:43.453Z,16.77
2018-07-22T02:54:45.714Z,15.73
2018-07-22T02:57:47.968Z,15.40
2018-07-22T03:00:50.237Z,17.23
2018-07-22T03:03:52.500Z,15.70
2018-07-22T03:06:55.745Z,21.20
2018-07-22T03:09:58.038Z,18.27
2018-07-22T03:13:00.261Z,19.20
2018-07-22T03:16:02.552Z,18.63
2018-07-22T03:19:04.818Z,22.27
2018-07-22T03:22:07.246Z,19.03
2018-07-22T03:25:09.598Z,19.93
2018-07-22T03:28:12.165Z,20.83
2018-07-22T03:31:14.642Z,22.77
2018-07-22T03:34:16.860Z,20.27
2018-07-22T03:37:19.293Z,17.93
2018-07-22T03:40:21.546Z,22.63
2018-07-22T03:43:23.784Z,19.40
2018-07-22T03:46:26.100Z,21.83
2018-07-22T03:49:28.377Z,22.13
2018-07-22T03:52:30.649Z,20.80
2018-07-22T03:55:32.894Z,21.83
2018-07-22T03:58:35.164Z,22.23
2018-07-22T04:01:37.585Z,25.00
2018-07-22T04:04:39.831Z,25.50
2018-07-22T04:07:42.062Z,25.93
2018-07-22T04:10:44.329Z,23.53
2018-07-22T04:13:46.653Z,23.83
2018-07-22T04:16:48.881Z,23.13
2018-07-22T04:19:51.146Z,23.63
2018-07-22T04:22:53.429Z,23.47
2018-07-22T04:25:55.755Z,29.03
2018-07-22T04:28:57.995Z,29.40
2018-07-22T04:32:00.305Z,23.73
2018-07-22T04:35:02.678Z,25.80
2018-07-22T04:38:05.295Z,24.07
2018-07-22T04:41:07.509Z,26.37
2018-07-22T04:44:09.767Z,23.27
2018-07-22T04:47:11.984Z,23.00
2018-07-22T04:50:14.249Z,20.70
2018-07-22T04:53:16.502Z,19.90
2018-07-22T04:56:18.802Z,25.43
2018-07-22T04:59:21.210Z,19.97
2018-07-22T05:02:23.687Z,18.87
2018-07-22T05:05:25.998Z,22.73
2018-07-22T05:08:28.344Z,19.87
2018-07-22T05:11:30.558Z,19.20
2018-07-22T05:14:32.801Z,19.83
2018-07-22T05:17:35.014Z,17.73
2018-07-22T05:20:37.247Z,17.27
2018-07-22T05:23:39.498Z,19.17
2018-07-22T05:26:41.733Z,21.13
2018-07-22T05:29:44.029Z,18.83
2018-07-22T05:32:46.312Z,19.73
2018-07-22T05:35:48.618Z,17.43
2018-07-22T05:38:50.853Z,19.43
2018-07-22T05:41:53.121Z,18.00
2018-07-22T05:44:55.326Z,17.97
2018-07-22T05:47:57.501Z,22.50
2018-07-22T05:50:59.821Z,18.07
2018-07-22T05:54:02.106Z,22.40
2018-07-22T05:57:05.181Z,20.63
2018-07-22T06:00:07.921Z,19.53
2018-07-22T06:03:10.137Z,20.47
2018-07-22T06:06:13.368Z,19.70
2018-07-22T06:09:15.609Z,20.80
2018-07-22T06:12:17.874Z,22.87
2018-07-22T06:15:20.426Z,19.03
2018-07-22T06:18:22.663Z,17.67
2018-07-22T06:21:25.026Z,20.17
2018-07-22T06:24:27.241Z,18.63
2018-07-22T06:27:29.500Z,19.53
2018-07-22T06:30:31.808Z,18.67
2018-07-22T06:33:34.158Z,19.87
2018-07-22T06:36:36.403Z,21.80
2018-07-22T06:39:38.701Z,16.80
2018-07-22T06:42:40.990Z,19.90
2018-07-22T06:45:43.362Z,20.43
2018-07-22T06:48:45.665Z,21.23
2018-07-22T06:51:48.090Z,20.57
2018-07-22T06:54:50.325Z,20.00
2018-07-22T06:57:52.678Z,20.67
2018-07-22T07:00:55.162Z,19.50
2018-07-22T07:03:57.518Z,24.83
2018-07-22T07:06:59.842Z,20.93
2018-07-22T07:10:02.224Z,21.10
2018-07-22T07:13:04.444Z,20.33
2018-07-22T07:16:06.674Z,22.23
2018-07-22T07:19:08.931Z,22.03
2018-07-22T07:22:11.202Z,17.60
2018-07-22T07:25:13.578Z,19.40
2018-07-22T07:28:15.835Z,21.50
2018-07-22T07:31:18.629Z,17.93
2018-07-22T07:34:20.888Z,19.50
2018-07-22T07:37:23.182Z,23.73
2018-07-22T07:40:25.475Z,19.97
2018-07-22T07:43:27.733Z,22.20
2018-07-22T07:46:29.963Z,24.73
2018-07-22T07:49:32.372Z,20.80
2018-07-22T07:52:34.669Z,20.43
2018-07-22T07:55:36.946Z,20.57
2018-07-22T07:58:39.337Z,20.33
2018-07-22T08:01:42.666Z,20.33
2018-07-22T08:04:44.915Z,21.87
2018-07-22T08:07:47.217Z,27.53
2018-07-22T08:10:49.537Z,22.53
2018-07-22T08:13:51.791Z,23.43
2018-07-22T08:16:54.028Z,21.10
2018-07-22T08:19:56.322Z,21.70
2018-07-22T08:22:58.561Z,23.03
2018-07-22T08:26:00.896Z,22.30
2018-07-22T08:29:25.735Z,18.03
2018-07-22T08:32:28.010Z,21.73
2018-07-22T08:35:30.261Z,21.43
2018-07-22T08:38:32.447Z,21.70
2018-07-22T08:41:34.751Z,21.70
2018-07-22T08:44:36.957Z,20.90
2018-07-22T08:47:39.167Z,19.03
2018-07-22T08:50:41.361Z,23.07
2018-07-22T08:53:44.834Z,20.03
2018-07-22T08:56:47.185Z,20.97
2018-07-22T08:59:49.454Z,21.83
2018-07-22T09:02:51.763Z,19.60
2018-07-22T09:05:54.033Z,19.10
2018-07-22T09:08:56.334Z,20.27
2018-07-22T09:11:58.577Z,18.40
2018-07-22T09:15:00.781Z,18.63
2018-07-22T09:18:04.059Z,17.27
2018-07-22T09:21:08.513Z,19.73
2018-07-22T09:24:10.731Z,19.73
2018-07-22T09:27:13.051Z,19.37
2018-07-22T09:30:15.237Z,24.53
2018-07-22T09:33:17.470Z,20.73
2018-07-22T09:36:19.847Z,20.23
2018-07-22T09:39:22.058Z,19.20
2018-07-22T09:42:25.074Z,17.73
2018-07-22T09:45:27.269Z,19.33
2018-07-22T09:48:33.853Z,25.07
2018-07-22T09:51:37.216Z,19.30
2018-07-22T09:54:40.514Z,20.23
2018-07-22T09:57:42.818Z,17.57
2018-07-22T10:00:50.622Z,17.93
2018-07-22T10:03:53.877Z,20.40
2018-07-22T10:06:56.073Z,21.30
2018-07-22T10:09:58.310Z,19.67
2018-07-22T10:13:00.633Z,19.87
2018-07-22T10:16:02.994Z,18.30
2018-07-22T10:19:06.357Z,17.70
2018-07-22T10:22:08.782Z,20.53
2018-07-22T10:25:11.086Z,19.50
2018-07-22T10:28:14.401Z,19.50
2018-07-22T10:31:16.654Z,22.10
2018-07-22T10:34:24.248Z,20.00
2018-07-22T10:37:26.801Z,18.53
2018-07-22T10:40:32.131Z,19.30
2018-07-22T10:43:35.465Z,16.43
2018-07-22T10:46:37.842Z,20.83
2018-07-22T10:49:40.114Z,19.30
2018-07-22T10:52:42.466Z,15.23
2018-07-22T10:55:46.778Z,19.80
2018-07-22T10:58:49.082Z,16.77
2018-07-22T11:01:51.451Z,20.10
2018-07-22T11:04:54.718Z,17.23
2018-07-22T11:07:57.023Z,18.37
2018-07-22T11:10:59.234Z,19.23
2018-07-22T11:14:03.686Z,18.47
2018-07-22T11:17:06.062Z,17.07
2018-07-22T11:20:08.364Z,17.60
2018-07-22T11:23:10.578Z,15.40
2018-07-22T11:26:13.851Z,18.83
2018-07-22T11:29:16.258Z,16.83
2018-07-22T11:32:19.611Z,18.37
2018-07-22T11:35:22.961Z,17.57
2018-07-22T11:38:26.303Z,17.60
2018-07-22T11:41:29.615Z,17.43
2018-07-22T11:44:32.846Z,16.33
2018-07-22T11:47:35.287Z,15.27
2018-07-22T11:50:43.279Z,16.83
2018-07-22T11:53:45.452Z,14.97
2018-07-22T11:56:52.746Z,14.53
2018-07-22T11:59:56.076Z,15.20
2018-07-22T12:02:59.286Z,14.33
2018-07-22T12:06:02.518Z,13.80
2018-07-22T12:09:07.105Z,16.97
2018-07-22T12:12:15.026Z,12.90
2018-07-22T12:15:17.276Z,13.90
2018-07-22T12:18:20.631Z,11.80
2018-07-22T12:21:24.946Z,13.97
2018-07-22T12:24:27.183Z,13.17
2018-07-22T12:27:29.441Z,12.93
2018-07-22T12:30:31.994Z,11.73
2018-07-22T12:33:35.324Z,11.63
2018-07-22T12:36:37.852Z,11.63
2018-07-22T12:39:40.241Z,11.00
2018-07-22T12:42:42.474Z,14.63
2018-07-22T12:45:44.726Z,11.43
2018-07-22T12:48:47.114Z,11.97
2018-07-22T12:51:50.309Z,10.07
2018-07-22T12:54:52.584Z,10.00
2018-07-22T12:58:00.616Z,10.53
2018-07-22T13:01:03.840Z,10.37
2018-07-22T13:04:08.199Z,9.00
2018-07-22T13:07:11.551Z,9.23
2018-07-22T13:10:13.744Z,9.93
2018-07-22T13:13:15.982Z,9.13
2018-07-22T13:16:18.242Z,8.47
2018-07-22T13:19:20.502Z,9.63
2018-07-22T13:22:22.817Z,8.93
2018-07-22T13:25:28.701Z,8.40
2018-07-22T13:28:31.125Z,9.27
2018-07-22T13:31:34.346Z,13.73
2018-07-22T13:34:37.653Z,9.03
2018-07-22T13:37:40.911Z,12.30
2018-07-22T13:40:43.131Z,12.57
2018-07-22T13:43:45.390Z,11.57
2018-07-22T13:46:47.607Z,10.83
2018-07-22T13:49:50.007Z,10.67
2018-07-22T13:52:52.304Z,11.20
2018-07-22T13:55:54.575Z,10.33
2018-07-22T13:58:56.805Z,10.40
2018-07-22T14:01:59.028Z,10.53
2018-07-22T14:05:01.402Z,9.40
2018-07-22T14:08:13.361Z,9.03
2018-07-22T14:11:15.615Z,12.10
2018-07-22T14:14:19.830Z,13.33
2018-07-22T14:17:27.067Z,11.83
2018-07-22T14:20:33.009Z,11.20
2018-07-22T14:23:35.228Z,12.13
2018-07-22T14:26:37.593Z,12.10
2018-07-22T14:29:39.891Z,10.73
2018-07-22T14:32:42.100Z,10.83
2018-07-22T14:35:44.403Z,9.83
2018-07-22T14:38:50.650Z,9.83
2018-07-22T14:41:52.933Z,10.17
2018-07-22T14:44:55.196Z,9.97
2018-07-22T14:47:57.513Z,10.57
2018-07-22T14:51:00.762Z,13.00
2018-07-22T14:54:03.062Z,10.10
2018-07-22T14:57:07.366Z,10.13
2018-07-22T15:00:10.017Z,9.27
2018-07-22T15:03:12.346Z,10.23
2018-07-22T15:06:14.572Z,9.50
2018-07-22T15:09:16.877Z,8.57
2018-07-22T15:12:21.205Z,11.50
2018-07-22T15:15:23.446Z,10.10
2018-07-22T15:18:25.712Z,9.50
2018-07-22T15:21:27.941Z,8.30
2018-07-22T15:24:30.173Z,8.57
2018-07-22T15:27:32.413Z,8.67
2018-07-22T15:30:35.781Z,8.13
2018-07-22T15:33:38.053Z,8.00
2018-07-22T15:36:41.301Z,8.63
2018-07-22T15:39:43.622Z,8.03
2018-07-22T15:42:45.946Z,8.67
2018-07-22T15:45:48.210Z,7.30
2018-07-22T15:48:50.446Z,5.67
2018-07-22T15:51:53.663Z,5.60
2018-07-22T15:54:55.943Z,6.10
2018-07-22T15:57:58.230Z,5.37
2018-07-22T16:01:00.489Z,5.93
2018-07-22T16:04:02.757Z,4.90
2018-07-22T16:07:05.310Z,5.73
2018-07-22T16:10:07.820Z,5.50
2018-07-22T16:13:10.028Z,5.73
2018-07-22T16:16:12.275Z,6.07
2018-07-22T16:19:15.581Z,6.20
2018-07-22T16:22:18.813Z,5.20
2018-07-22T16:25:21.141Z,5.37
2018-07-22T16:28:23.396Z,5.07
2018-07-22T16:31:25.753Z,4.80
2018-07-22T16:34:29.093Z,5.03
2018-07-22T16:37:31.519Z,5.33
2018-07-22T16:40:33.764Z,5.40
2018-07-22T16:43:36.223Z,5.03
2018-07-22T16:46:38.512Z,5.83
2018-07-22T16:49:40.840Z,5.47
2018-07-22T16:52:44.161Z,6.53
2018-07-22T16:55:49.741Z,9.23
2018-07-22T16:58:53.005Z,17.33
2018-07-22T17:01:55.256Z,5.50
2018-07-22T17:05:01.062Z,4.83
2018-07-22T17:08:03.425Z,10.60
2018-07-22T17:11:07.780Z,3.30
2018-07-22T17:14:10.084Z,6.60
2018-07-22T17:17:12.433Z,4.37
2018-07-22T17:20:15.810Z,7.47
2018-07-22T17:23:18.168Z,12.57
2018-07-22T17:26:22.510Z,18.60
2018-07-22T17:29:26.355Z,12.13
2018-07-22T17:32:32.410Z,5.57
2018-07-22T17:35:35.867Z,11.07
2018-07-22T17:38:38.200Z,8.40
2018-07-22T17:41:41.439Z,7.83
2018-07-22T17:44:43.870Z,25.57
2018-07-22T17:47:46.190Z,15.87
2018-07-22T17:50:48.431Z,22.10
2018-07-22T17:53:51.759Z,7.77
2018-07-22T17:56:55.031Z,7.70
2018-07-22T18:00:00.770Z,8.97
2018-07-22T18:03:25.556Z,7.03
2018-07-22T18:06:27.789Z,8.77
2018-07-22T18:09:31.057Z,10.47
2018-07-22T18:12:33.325Z,10.27
2018-07-22T18:15:35.557Z,12.00
2018-07-22T18:18:37.865Z,10.43
2018-07-22T18:21:41.137Z,7.43
2018-07-22T18:24:43.469Z,7.73
2018-07-22T18:27:46.764Z,7.73
2018-07-22T18:30:49.092Z,7.60
2018-07-22T18:33:52.371Z,7.50
2018-07-22T18:36:54.624Z,8.40
2018-07-22T18:39:56.943Z,7.10
2018-07-22T18:42:59.180Z,7.20
2018-07-22T18:46:03.630Z,7.00
2018-07-22T18:49:05.929Z,7.80
2018-07-22T18:52:09.132Z,10.27
2018-07-22T18:55:11.513Z,6.27
2018-07-22T18:58:13.857Z,6.27
2018-07-22T19:01:17.385Z,6.60
2018-07-22T19:04:19.686Z,8.53
2018-07-22T19:07:22.007Z,6.07
2018-07-22T19:10:24.258Z,8.37
2018-07-22T19:13:26.446Z,6.87
2018-07-22T19:16:29.643Z,8.50
2018-07-22T19:19:31.976Z,6.27
2018-07-22T19:22:34.224Z,6.37
2018-07-22T19:25:37.451Z,8.40
2018-07-22T19:28:39.745Z,6.13
2018-07-22T19:31:43.040Z,8.93
2018-07-22T19:34:48.748Z,9.57
2018-07-22T19:37:52.045Z,10.27
2018-07-22T19:40:55.453Z,8.17
2018-07-22T19:43:57.685Z,8.20
2018-07-22T19:46:59.992Z,9.10
2018-07-22T19:50:04.436Z,9.70
2018-07-22T19:53:06.682Z,8.00
2018-07-22T19:56:08.952Z,13.07
2018-07-22T19:59:12.346Z,9.30
2018-07-22T20:02:14.631Z,12.37
2018-07-22T20:05:20.705Z,9.37
2018-07-22T20:08:22.881Z,7.50
2018-07-22T20:11:25.142Z,8.27
2018-07-22T20:14:27.348Z,9.10
2018-07-22T20:17:29.722Z,11.47
2018-07-22T20:20:32.254Z,11.30
2018-07-22T20:23:36.661Z,8.03
2018-07-22T20:26:40.199Z,9.07
2018-07-22T20:29:42.812Z,8.37
2018-07-22T20:32:45.189Z,10.17
2018-07-22T20:35:47.642Z,8.37
2018-07-22T20:38:50.248Z,10.33
2018-07-22T20:41:52.582Z,7.90
2018-07-22T20:44:55.203Z,8.40
2018-07-22T20:47:58.706Z,8.10
2018-07-22T20:51:01.280Z,9.73
2018-07-22T20:54:03.753Z,9.23
2018-07-22T20:57:06.320Z,9.53
2018-07-22T21:00:08.820Z,9.27
2018-07-22T21:03:11.254Z,10.43
2018-07-22T21:06:14.728Z,9.67
2018-07-22T21:09:17.349Z,9.73
2018-07-22T21:12:40.519Z,13.63
2018-07-22T21:15:42.950Z,12.27
2018-07-22T21:18:45.390Z,9.43
2018-07-22T21:21:47.866Z,8.87
2018-07-22T21:24:50.160Z,9.23
2018-07-22T21:27:53.514Z,9.97
2018-07-22T21:30:55.962Z,9.27
2018-07-22T21:34:00.554Z,9.77
2018-07-22T21:37:02.927Z,9.53
2018-07-22T21:40:09.147Z,10.00
2018-07-22T21:43:11.666Z,9.90
2018-07-22T21:46:15.054Z,9.80
2018-07-22T21:49:17.617Z,10.30
2018-07-22T21:52:24.172Z,11.27
2018-07-22T21:55:28.592Z,9.70
2018-07-22T21:58:32.139Z,10.07
2018-07-22T22:01:35.617Z,10.50
2018-07-22T22:04:41.074Z,9.10
2018-07-22T22:07:43.439Z,9.33
2018-07-22T22:10:45.769Z,9.43
2018-07-22T22:13:48.177Z,9.37
2018-07-22T22:16:50.611Z,9.67
2018-07-22T22:19:54.040Z,11.20
2018-07-22T22:22:56.859Z,10.57
2018-07-22T22:26:00.515Z,12.03
2018-07-22T22:29:03.159Z,10.97
2018-07-22T22:32:06.649Z,12.90
2018-07-22T22:35:09.295Z,9.63
2018-07-22T22:38:13.828Z,9.77
2018-07-22T22:41:18.346Z,11.23
2018-07-22T22:44:20.811Z,9.60
2018-07-22T22:47:23.256Z,9.57
2018-07-22T22:50:25.727Z,9.37
2018-07-22T22:53:28.228Z,9.60
2018-07-22T22:56:34.873Z,12.17
2018-07-22T22:59:37.355Z,11.47
2018-07-22T23:02:42.969Z,10.10
2018-07-22T23:05:45.862Z,10.73
2018-07-22T23:08:48.280Z,9.77
2018-07-22T23:11:51.770Z,12.97
2018-07-22T23:14:55.300Z,10.63
2018-07-22T23:17:58.796Z,11.33
2018-07-22T23:21:01.378Z,13.63
2018-07-22T23:24:05.056Z,13.03
2018-07-22T23:27:08.638Z,11.30
2018-07-22T23:30:11.331Z,12.53
2018-07-22T23:33:14.981Z,12.23
2018-07-22T23:36:18.576Z,11.73
2018-07-22T23:39:24.320Z,11.23
2018-07-22T23:42:28.775Z,11.37
2018-07-22T23:45:31.208Z,10.73
2018-07-22T23:48:33.767Z,11.00
2018-07-22T23:51:37.368Z,11.33
2018-07-22T23:54:40.055Z,10.80
2018-07-22T23:57:42.538Z,11.27
